Time;durP1;ratioP1;P1;durP2;ratioP2;P2;SDS_P1;SDS_P2;PMS_P1;PMS_P2;Temp;Humidity;BMP_temperature;BMP_pressure;BME280_temperature;BME280_humidity;BME280_pressure;Samples;Min_cycle;Max_cycle;Signal;HPM_P1;HPM_P2
2020/12/01 00:00:39;;;;;;;112.53;54.05;;;0.80;99.90;;;;;;5050436;28;20029;-82
2020/12/01 00:03:05;;;;;;;112.40;59.30;;;0.80;99.90;;;;;;5050044;28;20108;-83
2020/12/01 00:05:33;;;;;;;117.97;56.05;;;0.70;99.90;;;;;;5051195;28;20070;-82
2020/12/01 00:07:59;;;;;;;106.65;52.55;;;0.70;99.90;;;;;;5049900;28;20052;-83
2020/12/01 00:10:24;;;;;;;113.50;55.58;;;0.70;99.90;;;;;;5049762;28;20128;-83
2020/12/01 00:12:51;;;;;;;117.90;57.17;;;0.70;99.90;;;;;;5049687;28;20037;-85
2020/12/01 00:15:20;;;;;;;107.38;52.75;;;0.60;99.90;;;;;;5050299;28;20167;-84
2020/12/01 00:17:46;;;;;;;107.72;51.25;;;0.50;99.90;;;;;;5050045;28;20120;-85
2020/12/01 00:20:15;;;;;;;104.55;50.80;;;0.50;99.90;;;;;;5051307;28;20103;-83
2020/12/01 00:22:41;;;;;;;92.22;47.53;;;0.40;99.90;;;;;;5050235;28;20025;-83
2020/12/01 00:25:08;;;;;;;63.97;36.13;;;0.50;99.90;;;;;;5049991;28;20059;-82
2020/12/01 00:27:34;;;;;;;75.43;38.75;;;0.40;99.90;;;;;;5050883;28;20025;-83
2020/12/01 00:30:00;;;;;;;71.22;37.35;;;0.10;99.90;;;;;;5050711;28;20482;-83
2020/12/01 00:32:26;;;;;;;61.85;34.08;;;0.20;99.90;;;;;;5055197;28;20452;-81
2020/12/01 00:34:52;;;;;;;69.60;35.33;;;0.20;99.90;;;;;;5053525;28;20111;-81
2020/12/01 00:37:17;;;;;;;72.88;37.45;;;0.40;99.90;;;;;;5054909;28;20032;-83
2020/12/01 00:39:43;;;;;;;70.93;34.15;;;0.30;99.90;;;;;;5053775;28;20035;-83
2020/12/01 00:42:09;;;;;;;84.35;36.83;;;0.40;99.90;;;;;;5055028;28;20029;-81
2020/12/01 00:44:35;;;;;;;66.43;35.85;;;0.10;99.90;;;;;;5054851;28;20052;-83
2020/12/01 00:47:00;;;;;;;76.40;37.83;;;0.20;99.90;;;;;;5054511;28;20491;-86
2020/12/01 00:49:26;;;;;;;70.72;35.97;;;0.30;99.90;;;;;;5053293;28;20590;-82
2020/12/01 00:51:52;;;;;;;58.10;34.22;;;0.30;99.90;;;;;;5053140;28;20025;-85
2020/12/01 00:54:18;;;;;;;68.60;33.78;;;0.40;99.90;;;;;;5054587;28;20100;-83
2020/12/01 00:56:44;;;;;;;64.18;34.35;;;0.40;99.90;;;;;;5053725;28;20436;-82
2020/12/01 00:59:10;;;;;;;59.00;32.47;;;0.30;99.90;;;;;;5054553;28;20021;-84
2020/12/01 01:01:36;;;;;;;63.28;33.28;;;0.30;99.90;;;;;;5053447;28;20029;-82
2020/12/01 01:04:02;;;;;;;60.03;30.73;;;0.30;99.90;;;;;;5053414;28;20103;-83
2020/12/01 01:06:28;;;;;;;64.10;32.08;;;0.30;99.90;;;;;;5054633;28;20483;-81
2020/12/01 01:08:54;;;;;;;65.03;31.75;;;0.40;99.90;;;;;;5053529;28;20027;-83
2020/12/01 01:11:30;;;;;;;68.40;32.58;;;0.40;99.90;;;;;;5053106;28;20492;-82
2020/12/01 01:13:57;;;;;;;65.10;34.35;;;0.30;99.90;;;;;;5054073;28;20024;-82
2020/12/01 01:16:24;;;;;;;64.90;34.85;;;0.40;99.90;;;;;;5052984;28;20025;-82
2020/12/01 01:18:51;;;;;;;70.10;34.72;;;0.40;99.90;;;;;;5053945;28;20099;-84
2020/12/01 01:21:17;;;;;;;64.47;35.03;;;0.40;99.90;;;;;;5053123;28;20020;-82
2020/12/01 01:23:43;;;;;;;70.93;34.20;;;0.40;99.90;;;;;;5054187;28;20431;-83
2020/12/01 01:26:09;;;;;;;74.18;35.95;;;0.50;99.90;;;;;;5053083;28;20583;-83
2020/12/01 01:28:38;;;;;;;68.45;36.35;;;0.40;99.90;;;;;;5052588;28;20093;-82
2020/12/01 01:31:03;;;;;;;63.22;35.17;;;0.40;99.90;;;;;;5053872;28;20040;-83
2020/12/01 01:33:29;;;;;;;74.85;34.97;;;0.30;99.90;;;;;;5053853;28;20400;-82
2020/12/01 01:35:55;;;;;;;69.47;34.78;;;0.30;99.90;;;;;;5053022;28;20024;-84
2020/12/01 01:38:20;;;;;;;59.05;32.45;;;0.30;99.90;;;;;;5054052;28;20033;-82
2020/12/01 01:40:46;;;;;;;58.35;32.22;;;0.20;99.90;;;;;;5054194;28;20452;-84
2020/12/01 01:43:13;;;;;;;47.55;27.33;;;0.10;99.90;;;;;;5053222;28;20029;-82
2020/12/01 01:45:47;;;;;;;53.47;27.92;;;0.20;99.90;;;;;;5053702;28;20033;-82
2020/12/01 01:48:24;;;;;;;59.13;26.77;;;0.00;99.90;;;;;;5053667;28;20036;-84
2020/12/01 01:51:16;;;;;;;44.10;22.58;;;-0.20;99.90;;;;;;5053736;28;20039;-81
2020/12/01 01:53:48;;;;;;;33.10;18.85;;;-0.70;99.90;;;;;;5052396;28;20029;-82
2020/12/01 01:56:21;;;;;;;29.27;17.95;;;-0.70;99.90;;;;;;5052959;28;20036;-83
2020/12/01 01:58:48;;;;;;;27.75;16.92;;;-0.90;99.90;;;;;;5052380;28;20029;-81
2020/12/01 02:01:24;;;;;;;28.77;17.30;;;-0.90;99.90;;;;;;5052228;28;20049;-80
2020/12/01 02:03:53;;;;;;;28.75;17.40;;;-0.90;99.90;;;;;;5061611;22;20032;-82
2020/12/01 02:06:26;;;;;;;32.08;18.40;;;-0.60;99.90;;;;;;5053661;28;20068;-82
2020/12/01 02:09:11;;;;;;;33.33;16.33;;;-0.50;99.90;;;;;;5052297;28;20029;-86
2020/12/01 02:11:40;;;;;;;25.15;15.15;;;-0.50;99.90;;;;;;5053866;28;20577;-81
2020/12/01 02:14:11;;;;;;;28.05;14.55;;;-0.60;99.90;;;;;;5035617;28;20021;-87
2020/12/01 02:16:42;;;;;;;27.88;15.38;;;-1.00;99.90;;;;;;5053580;28;20369;-83
2020/12/01 02:19:10;;;;;;;;;;;-1.00;99.90;;;;;;5035534;28;20123;-82
2020/12/01 02:21:39;;;;;;;26.48;14.75;;;-1.30;99.90;;;;;;5053467;28;19905;-84
2020/12/01 02:24:29;;;;;;;24.20;14.27;;;-1.40;99.90;;;;;;5053217;28;20021;-83
2020/12/01 02:26:57;;;;;;;24.30;14.40;;;-1.30;99.90;;;;;;5053192;28;20092;-85
2020/12/01 02:29:30;;;;;;;27.40;15.27;;;-1.30;99.90;;;;;;5034838;28;20040;-83
2020/12/01 02:31:57;;;;;;;26.08;15.57;;;-1.30;99.90;;;;;;5053122;28;20028;-83
2020/12/01 02:34:33;;;;;;;24.85;14.30;;;-1.10;99.90;;;;;;5034823;28;20421;-82
2020/12/01 02:37:00;;;;;;;28.33;16.88;;;-0.80;99.90;;;;;;5034966;28;20364;-80
2020/12/01 02:39:28;;;;;;;26.20;14.88;;;-0.50;99.90;;;;;;5035026;28;20024;-82
2020/12/01 02:41:58;;;;;;;32.13;16.20;;;-0.30;99.90;;;;;;5052705;28;20063;-82
2020/12/01 02:44:25;;;;;;;29.83;16.52;;;-0.30;99.90;;;;;;5052835;28;20029;-84
2020/12/01 02:46:52;;;;;;;28.52;15.23;;;-0.30;99.90;;;;;;5034675;28;20039;-80
2020/12/01 02:49:18;;;;;;;34.00;16.50;;;-0.40;99.90;;;;;;5052675;28;20060;-82
2020/12/01 02:51:45;;;;;;;33.88;17.98;;;-0.30;99.90;;;;;;5034548;28;20033;-82
2020/12/01 02:54:11;;;;;;;40.40;20.10;;;-0.40;99.90;;;;;;5051374;28;20099;-82
2020/12/01 02:56:36;;;;;;;46.38;21.40;;;-0.40;99.90;;;;;;5052660;28;20024;-81
2020/12/01 02:59:02;;;;;;;39.13;22.27;;;-0.50;99.90;;;;;;5052173;28;20017;-81
2020/12/01 03:01:28;;;;;;;48.70;24.25;;;-0.40;99.90;;;;;;5034354;28;20064;-81
2020/12/01 03:03:54;;;;;;;49.97;26.33;;;-0.50;99.90;;;;;;5034183;28;20071;-85
2020/12/01 03:06:21;;;;;;;46.65;26.00;;;-0.50;99.90;;;;;;5052283;28;20082;-81
2020/12/01 03:08:50;;;;;;;41.75;24.23;;;-0.50;99.90;;;;;;5034310;28;20373;-80
2020/12/01 03:11:17;;;;;;;51.53;24.95;;;-0.60;99.90;;;;;;5052080;28;20104;-82
2020/12/01 03:13:44;;;;;;;50.63;25.33;;;-0.60;99.90;;;;;;5052379;28;20405;-81
2020/12/01 03:16:10;;;;;;;55.08;26.45;;;-0.70;99.90;;;;;;5034081;28;20055;-83
2020/12/01 03:18:41;;;;;;;50.97;24.42;;;-0.80;99.90;;;;;;5051751;28;20025;-83
2020/12/01 03:21:08;;;;;;;46.13;24.92;;;-0.70;99.90;;;;;;5052094;28;20033;-81
2020/12/01 03:23:35;;;;;;;54.85;25.23;;;-0.60;99.90;;;;;;5051917;28;20180;-85
2020/12/01 03:26:01;;;;;;;42.65;23.75;;;-0.50;99.90;;;;;;5033695;28;20638;-81
2020/12/01 03:28:28;;;;;;;53.25;27.27;;;-0.50;99.90;;;;;;5051525;28;20028;-82
2020/12/01 03:30:54;;;;;;;54.47;26.85;;;-0.60;99.90;;;;;;5051503;28;20039;-82
2020/12/01 03:33:20;;;;;;;48.45;26.95;;;-0.60;99.90;;;;;;5051771;28;20021;-82
2020/12/01 03:35:46;;;;;;;47.60;25.25;;;-0.60;99.90;;;;;;5034130;28;20041;-84
2020/12/01 03:38:12;;;;;;;47.75;25.00;;;-0.60;99.90;;;;;;5033699;28;20032;-83
2020/12/01 03:40:38;;;;;;;55.60;26.83;;;-0.60;99.90;;;;;;5033725;28;20044;-80
2020/12/01 03:43:04;;;;;;;50.13;25.48;;;-0.70;99.90;;;;;;5051425;28;20039;-82
2020/12/01 03:45:31;;;;;;;54.47;26.20;;;-0.60;99.90;;;;;;5051452;28;20021;-84
2020/12/01 03:47:57;;;;;;;51.92;26.55;;;-0.70;99.90;;;;;;5050122;28;20046;-81
2020/12/01 03:50:25;;;;;;;53.45;27.48;;;-0.80;99.90;;;;;;5053592;28;20040;-81
2020/12/01 03:52:51;;;;;;;54.85;27.35;;;-0.80;99.90;;;;;;5071199;28;20059;-80
2020/12/01 03:55:19;;;;;;;52.65;26.48;;;-0.70;99.90;;;;;;5071746;28;20372;-82
2020/12/01 03:57:45;;;;;;;50.20;26.95;;;-0.70;99.90;;;;;;5053110;28;20024;-81
2020/12/01 04:00:15;;;;;;;50.42;25.95;;;-0.70;99.90;;;;;;5071293;28;20020;-80
2020/12/01 04:02:41;;;;;;;45.58;23.25;;;-0.80;99.90;;;;;;5071440;28;20050;-82
2020/12/01 04:05:07;;;;;;;43.78;20.60;;;-0.70;99.90;;;;;;5070856;28;20048;-81
2020/12/01 04:07:33;;;;;;;41.42;21.27;;;-0.90;99.90;;;;;;5053085;28;20384;-81
2020/12/01 04:09:59;;;;;;;40.28;19.42;;;-1.40;99.90;;;;;;5071062;28;20036;-84
2020/12/01 04:12:25;;;;;;;33.92;19.73;;;-1.40;99.90;;;;;;5071097;28;20013;-83
2020/12/01 04:14:51;;;;;;;32.85;19.15;;;-1.50;99.90;;;;;;5071286;28;20021;-82
2020/12/01 04:17:17;;;;;;;38.67;18.85;;;-1.40;99.90;;;;;;5053264;28;20078;-83
2020/12/01 04:19:43;;;;;;;42.70;20.33;;;-1.40;99.90;;;;;;5053563;28;20032;-81
2020/12/01 04:22:11;;;;;;;36.58;18.67;;;-1.50;99.90;;;;;;5071149;28;20077;-81
2020/12/01 04:24:38;;;;;;;38.08;20.00;;;-1.60;99.90;;;;;;5071238;28;20071;-81
2020/12/01 04:27:04;;;;;;;40.65;20.38;;;-1.50;99.90;;;;;;5071041;28;20087;-82
2020/12/01 04:29:30;;;;;;;36.35;19.58;;;-1.40;99.90;;;;;;5053226;28;20036;-81
2020/12/01 04:31:56;;;;;;;36.28;20.30;;;-1.30;99.90;;;;;;5071126;28;20025;-83
2020/12/01 04:34:21;;;;;;;35.15;20.50;;;-1.30;99.90;;;;;;5053157;28;20036;-82
2020/12/01 04:36:47;;;;;;;36.85;20.20;;;-1.30;99.90;;;;;;5070875;28;20028;-80
2020/12/01 04:39:13;;;;;;;37.83;21.27;;;-1.30;99.90;;;;;;5071095;28;20090;-84
2020/12/01 04:41:39;;;;;;;40.92;19.58;;;-1.20;99.90;;;;;;5053050;28;20468;-81
2020/12/01 04:44:05;;;;;;;38.08;20.90;;;-1.60;99.90;;;;;;5071414;28;20020;-84
2020/12/01 04:46:34;;;;;;;36.67;19.60;;;-1.50;99.90;;;;;;5049621;28;20017;-82
2020/12/01 04:49:06;;;;;;;37.45;19.40;;;-1.60;99.90;;;;;;5051059;28;20384;-81
2020/12/01 04:51:51;;;;;;;34.42;18.90;;;-1.70;99.90;;;;;;5050811;28;20037;-80
2020/12/01 04:54:54;;;;;;;38.65;19.98;;;-1.50;99.90;;;;;;5051213;28;20021;-82
2020/12/01 04:57:39;;;;;;;46.22;20.55;;;-1.50;99.90;;;;;;5051213;28;20033;-82
2020/12/01 05:00:13;;;;;;;40.28;20.95;;;-1.50;99.90;;;;;;5050697;28;20017;-82
2020/12/01 05:03:21;;;;;;;33.33;18.10;;;-1.60;99.90;;;;;;5050682;28;20108;-81
2020/12/01 05:06:36;;;;;;;37.15;19.95;;;-1.40;99.90;;;;;;5050612;28;20172;-83
2020/12/01 05:09:08;;;;;;;30.63;19.17;;;-1.60;99.90;;;;;;5024446;28;20067;-83
2020/12/01 05:11:55;;;;;;;39.53;19.02;;;-1.40;99.90;;;;;;5032207;28;20049;-85
2020/12/01 05:14:47;;;;;;;32.95;20.23;;;-1.30;99.90;;;;;;5033289;28;20120;-81
2020/12/01 05:17:38;;;;;;;40.53;20.63;;;-1.30;99.90;;;;;;5033214;28;20440;-81
2020/12/01 05:20:06;;;;;;;37.25;19.77;;;-1.70;99.90;;;;;;5036915;28;20110;-82
2020/12/01 05:22:32;;;;;;;38.20;21.33;;;-1.80;99.90;;;;;;5036261;28;20059;-83
2020/12/01 05:24:58;;;;;;;43.22;21.80;;;-2.00;99.90;;;;;;5036472;28;20479;-82
2020/12/01 05:27:35;;;;;;;40.55;20.67;;;-1.90;99.90;;;;;;5054127;28;20061;-81
2020/12/01 05:30:11;;;;;;;44.28;21.23;;;-1.90;99.90;;;;;;5054082;28;20032;-81
2020/12/01 05:32:50;;;;;;;37.55;19.55;;;-1.70;99.90;;;;;;5035677;28;20052;-81
2020/12/01 05:35:26;;;;;;;36.30;19.65;;;-2.10;99.90;;;;;;5054503;28;20036;-81
2020/12/01 05:37:57;;;;;;;34.85;20.25;;;-2.10;99.90;;;;;;5035935;28;20033;-82
2020/12/01 05:40:23;;;;;;;;;;;-1.90;99.90;;;;;;5054121;28;20067;-83
2020/12/01 05:42:49;;;;;;;34.75;21.23;;;-1.70;99.90;;;;;;5035951;28;20257;-81
2020/12/01 05:45:26;;;;;;;40.20;20.40;;;-1.50;99.90;;;;;;5036020;28;20481;-80
2020/12/01 05:48:19;;;;;;;33.20;19.42;;;-1.50;99.90;;;;;;5053392;28;20021;-81
2020/12/01 05:50:55;;;;;;;38.38;21.05;;;-1.40;99.90;;;;;;5053421;28;20043;-81
2020/12/01 05:53:21;;;;;;;39.25;19.52;;;-1.30;99.90;;;;;;5035532;28;20028;-82
2020/12/01 05:56:15;;;;;;;38.90;20.55;;;-1.30;99.90;;;;;;5053298;28;20025;-81
2020/12/01 05:58:45;;;;;;;37.90;19.10;;;-1.30;99.90;;;;;;5047511;28;20040;-81
2020/12/01 06:01:11;;;;;;;37.67;19.08;;;-1.50;99.90;;;;;;5053375;28;20071;-83
2020/12/01 06:03:49;;;;;;;39.45;21.15;;;-1.50;99.90;;;;;;5035898;28;20021;-80
2020/12/01 06:06:15;;;;;;;41.03;21.35;;;-1.50;99.90;;;;;;5035733;28;20049;-84
2020/12/01 06:09:14;;;;;;;37.05;21.58;;;-1.50;99.90;;;;;;5053119;28;20451;-82
2020/12/01 06:11:52;;;;;;;46.20;21.85;;;-1.50;99.90;;;;;;5035163;28;20044;-80
2020/12/01 06:14:33;;;;;;;39.05;22.42;;;-1.40;99.90;;;;;;5049694;28;20376;-84
2020/12/01 06:17:09;;;;;;;37.13;20.38;;;-1.30;99.90;;;;;;5055021;28;20043;-81
2020/12/01 06:19:57;;;;;;;45.88;24.42;;;-1.30;99.90;;;;;;5055237;28;20415;-85
2020/12/01 06:22:46;;;;;;;173.70;79.55;;;-1.20;99.90;;;;;;5055357;28;20024;-86
2020/12/01 06:25:24;;;;;;;59.85;32.00;;;-1.00;99.90;;;;;;5073297;28;20073;-83
2020/12/01 06:28:15;;;;;;;51.45;25.40;;;-1.00;99.90;;;;;;5046182;28;20108;-83
2020/12/01 06:31:00;;;;;;;;;;;-1.10;99.90;;;;;;5031080;28;20342;-86
2020/12/01 06:33:59;;;;;;;51.17;24.67;;;-1.10;99.90;;;;;;5052486;28;19912;-84
2020/12/01 06:37:02;;;;;;;51.05;29.27;;;-1.10;99.90;;;;;;5035179;28;20032;-84
2020/12/01 06:39:57;;;;;;;70.25;35.40;;;-0.20;99.90;;;;;;5052875;28;20025;-85
2020/12/01 06:42:36;;;;;;;76.50;38.42;;;0.40;99.90;;;;;;5016051;28;20423;-84
2020/12/01 06:45:28;;;;;;;73.88;36.80;;;-0.20;99.90;;;;;;5054319;28;20334;-84
2020/12/01 06:48:00;;;;;;;53.80;33.33;;;-0.40;99.90;;;;;;5064087;28;20526;-88
2020/12/01 06:50:30;;;;;;;62.97;32.83;;;-0.60;99.90;;;;;;5045160;28;20521;-86
2020/12/01 06:53:03;;;;;;;60.08;31.02;;;-0.90;99.90;;;;;;5040083;28;20369;-84
2020/12/01 06:55:41;;;;;;;55.15;29.40;;;-1.00;99.90;;;;;;5057327;28;20028;-86
2020/12/01 06:58:26;;;;;;;48.60;27.73;;;-0.80;99.90;;;;;;5060100;28;20028;-81
2020/12/01 07:01:23;;;;;;;42.47;24.73;;;-0.70;99.90;;;;;;5061114;28;20029;-83
2020/12/01 07:04:13;;;;;;;41.65;22.08;;;-0.40;99.90;;;;;;5072319;28;20135;-83
2020/12/01 07:07:07;;;;;;;37.00;20.30;;;-0.20;99.90;;;;;;5055798;28;20115;-82
2020/12/01 07:09:47;;;;;;;34.47;19.65;;;-0.40;99.90;;;;;;5039692;28;20369;-84
2020/12/01 07:12:13;;;;;;;38.88;22.75;;;-0.20;99.90;;;;;;5072030;28;20032;-84
2020/12/01 07:14:41;;;;;;;48.90;24.30;;;0.30;99.90;;;;;;5072260;28;20025;-85
2020/12/01 07:17:17;;;;;;;45.83;25.88;;;0.60;99.30;;;;;;5054039;28;20021;-87
2020/12/01 07:19:52;;;;;;;46.67;25.45;;;0.70;98.60;;;;;;5071847;28;20150;-82
2020/12/01 07:22:36;;;;;;;45.28;25.15;;;0.80;98.70;;;;;;5071266;28;20025;-85
2020/12/01 07:25:21;;;;;;;44.30;26.73;;;1.10;97.80;;;;;;5042360;28;20032;-83
2020/12/01 07:28:05;;;;;;;46.92;25.17;;;1.30;96.80;;;;;;5033466;28;20528;-83
2020/12/01 07:30:54;;;;;;;49.90;26.15;;;1.40;96.40;;;;;;5033537;28;20029;-84
2020/12/01 07:33:28;;;;;;;49.88;25.73;;;1.50;96.10;;;;;;5051974;28;20078;-84
2020/12/01 07:36:26;;;;;;;48.63;26.30;;;1.70;96.00;;;;;;5033755;28;20666;-84
2020/12/01 07:39:15;;;;;;;52.58;27.15;;;1.60;95.30;;;;;;5051713;28;20055;-84
2020/12/01 07:41:56;;;;;;;52.08;26.55;;;1.60;95.20;;;;;;5071333;28;20070;-83
2020/12/01 07:48:02;;;;;;;52.42;26.55;;;1.90;95.30;;;;;;5071667;28;20392;-85
2020/12/01 07:51:12;;;;;;;49.92;27.55;;;2.20;94.60;;;;;;5053830;28;20064;-85
2020/12/01 07:53:42;;;;;;;42.67;25.67;;;1.90;95.10;;;;;;5053647;28;20036;-87
2020/12/01 07:56:20;;;;;;;52.83;26.92;;;1.80;94.70;;;;;;5050324;28;20116;-86
2020/12/01 07:59:02;;;;;;;49.80;26.58;;;1.90;94.60;;;;;;5051382;28;20033;-85
2020/12/01 08:01:27;;;;;;;51.05;28.35;;;2.00;94.90;;;;;;5051619;28;20112;-85
2020/12/01 08:04:13;;;;;;;51.38;27.35;;;2.20;94.10;;;;;;5050227;28;20112;-85
2020/12/01 08:06:40;;;;;;;56.40;30.50;;;2.10;94.60;;;;;;5050689;28;20044;-86
2020/12/01 08:09:26;;;;;;;59.45;32.92;;;2.20;94.40;;;;;;5052765;28;20021;-86
2020/12/01 08:11:59;;;;;;;52.47;29.40;;;2.40;93.30;;;;;;5053610;28;20042;-83
2020/12/01 08:14:35;;;;;;;54.10;29.70;;;2.50;92.70;;;;;;5053700;28;20028;-83
2020/12/01 08:17:05;;;;;;;46.53;26.00;;;2.70;92.40;;;;;;5052685;28;20036;-84
2020/12/01 08:19:32;;;;;;;52.72;26.88;;;2.70;91.90;;;;;;5042380;28;20060;-84
2020/12/01 08:22:00;;;;;;;42.13;24.38;;;2.90;91.70;;;;;;5041259;28;20378;-85
2020/12/01 08:24:29;;;;;;;42.63;25.40;;;3.20;91.20;;;;;;5045962;28;20418;-85
2020/12/01 08:27:40;;;;;;;42.72;24.73;;;3.30;90.40;;;;;;5042293;28;20021;-86
2020/12/01 08:30:13;;;;;;;43.55;24.48;;;3.40;90.50;;;;;;5021426;28;20036;-84
2020/12/01 08:32:44;;;;;;;37.47;23.80;;;3.70;89.00;;;;;;5042502;28;20373;-84
2020/12/01 08:35:30;;;;;;;41.53;25.40;;;3.70;89.10;;;;;;5046389;28;20029;-85
2020/12/01 08:38:25;;;;;;;46.20;25.55;;;3.70;88.70;;;;;;5033728;28;20033;-85
2020/12/01 08:41:14;;;;;;;42.22;25.38;;;3.90;87.70;;;;;;5025129;28;20025;-84
2020/12/01 08:43:52;;;;;;;40.33;25.20;;;3.70;87.80;;;;;;5034172;28;20021;-84
2020/12/01 08:46:22;;;;;;;44.53;26.02;;;4.10;87.60;;;;;;5050070;28;20021;-83
2020/12/01 08:49:07;;;;;;;43.95;26.13;;;4.50;84.80;;;;;;5048993;28;20058;-85
2020/12/01 08:51:54;;;;;;;49.20;24.67;;;4.40;84.80;;;;;;5070910;28;20383;-83
2020/12/01 08:54:29;;;;;;;46.13;24.95;;;4.40;84.70;;;;;;5038989;28;20029;-84
2020/12/01 08:57:08;;;;;;;43.40;25.52;;;4.50;84.40;;;;;;5053076;28;20021;-83
2020/12/01 08:59:46;;;;;;;44.17;26.75;;;4.60;83.70;;;;;;5054494;28;20438;-84
2020/12/01 09:02:15;;;;;;;42.05;25.90;;;4.80;83.80;;;;;;5052884;28;20036;-84
2020/12/01 09:04:41;;;;;;;44.35;26.20;;;4.90;81.50;;;;;;5053056;28;20052;-84
2020/12/01 09:07:21;;;;;;;43.85;25.02;;;5.00;82.10;;;;;;5054105;28;20032;-85
2020/12/01 09:09:49;;;;;;;47.20;26.67;;;5.20;80.80;;;;;;5056109;28;20052;-86
2020/12/01 09:12:48;;;;;;;47.65;28.15;;;5.10;80.50;;;;;;5056495;28;20028;-84
2020/12/01 09:23:38;;;;;;;48.95;28.40;;;5.50;80.90;;;;;;5050260;28;20047;-85
2020/12/01 09:26:17;;;;;;;48.50;27.98;;;5.70;79.80;;;;;;5055575;28;20021;-86
2020/12/01 09:28:49;;;;;;;45.72;27.08;;;6.00;79.40;;;;;;5036243;28;20021;-85
2020/12/01 09:31:15;;;;;;;44.75;27.25;;;6.30;77.80;;;;;;5035879;28;20029;-84
2020/12/01 09:33:41;;;;;;;47.80;27.52;;;6.50;76.60;;;;;;5053806;28;20021;-84
2020/12/01 09:36:07;;;;;;;42.05;27.17;;;6.60;75.70;;;;;;5036393;28;20167;-84
2020/12/01 09:38:33;;;;;;;44.92;27.67;;;6.50;75.30;;;;;;5035937;28;20120;-86
2020/12/01 09:40:59;;;;;;;46.30;27.25;;;6.70;74.10;;;;;;5071730;28;20147;-85
2020/12/01 09:45:52;;;;;;;42.20;26.08;;;7.10;72.90;;;;;;5053464;28;20024;-84
2020/12/01 09:48:36;;;;;;;41.85;25.40;;;7.20;72.00;;;;;;5035588;28;20025;-84
2020/12/01 09:51:03;;;;;;;45.47;26.30;;;7.20;71.10;;;;;;5037076;28;20044;-85
2020/12/01 09:53:43;;;;;;;38.95;24.33;;;7.10;71.50;;;;;;5062021;28;20013;-85
2020/12/01 10:09:24;;;;;;;40.20;24.25;;;8.50;67.10;;;;;;5073212;28;20109;-82
2020/12/01 10:15:29;;;;;;;36.95;22.63;;;8.90;71.10;;;;;;5055153;28;20195;-85
2020/12/01 10:36:25;;;;;;;31.52;18.25;;;10.50;58.10;;;;;;5064452;28;20052;-83
2020/12/01 10:38:52;;;;;;;29.45;18.05;;;10.60;56.30;;;;;;5062188;28;20025;-83
2020/12/01 10:41:18;;;;;;;35.58;19.88;;;9.30;56.70;;;;;;5044679;28;20051;-81
2020/12/01 10:43:44;;;;;;;27.67;18.02;;;9.40;57.40;;;;;;5067334;28;20048;-82
2020/12/01 10:46:12;;;;;;;30.73;18.83;;;9.10;57.50;;;;;;5066734;28;20095;-82
2020/12/01 10:48:38;;;;;;;33.55;18.02;;;9.30;57.80;;;;;;5053748;28;20059;-84
2020/12/01 10:51:04;;;;;;;24.63;16.13;;;9.20;56.90;;;;;;5071782;28;20041;-84
2020/12/01 10:53:30;;;;;;;17.83;11.73;;;9.70;55.30;;;;;;5071641;28;20090;-83
2020/12/01 10:55:57;;;;;;;22.85;14.55;;;9.20;53.50;;;;;;5053817;28;20024;-81
2020/12/01 10:58:22;;;;;;;24.33;15.48;;;9.30;54.30;;;;;;5052847;28;20020;-82
2020/12/01 11:00:48;;;;;;;28.27;16.88;;;9.50;55.10;;;;;;5071606;28;20089;-83
2020/12/01 11:03:14;;;;;;;24.38;14.90;;;9.70;54.80;;;;;;5051959;28;20103;-81
2020/12/01 11:05:40;;;;;;;23.98;16.10;;;9.10;54.50;;;;;;5060180;28;20048;-82
2020/12/01 11:08:05;;;;;;;23.83;14.30;;;8.90;55.80;;;;;;5051492;28;20021;-80
2020/12/01 11:10:32;;;;;;;24.17;14.88;;;9.50;56.00;;;;;;5063851;28;20037;-80
2020/12/01 11:12:57;;;;;;;23.48;14.52;;;10.00;54.60;;;;;;5057296;28;20021;-81
2020/12/01 11:15:23;;;;;;;20.77;12.73;;;9.30;54.00;;;;;;5057600;28;20082;-80
2020/12/01 11:17:49;;;;;;;23.48;14.73;;;9.10;54.50;;;;;;5051629;28;20480;-79
2020/12/01 11:20:18;;;;;;;19.88;13.20;;;9.20;55.30;;;;;;5051061;28;20033;-81
2020/12/01 11:22:49;;;;;;;25.60;15.18;;;9.30;54.30;;;;;;5042005;28;20017;-78
2020/12/01 11:25:15;;;;;;;23.48;14.00;;;8.90;56.10;;;;;;5059331;28;20049;-77
2020/12/01 11:27:42;;;;;;;21.85;13.95;;;9.50;54.50;;;;;;5057530;28;20021;-80
2020/12/01 11:30:08;;;;;;;21.20;12.60;;;9.60;54.10;;;;;;5043994;28;20033;-81
2020/12/01 11:32:34;;;;;;;22.30;14.23;;;9.20;54.20;;;;;;5070058;28;20027;-80
2020/12/01 11:35:01;;;;;;;21.98;13.80;;;9.00;54.50;;;;;;5059698;28;20028;-80
2020/12/01 11:37:26;;;;;;;22.92;13.82;;;9.00;54.70;;;;;;5041591;28;20055;-77
2020/12/01 11:39:52;;;;;;;20.50;13.57;;;9.50;54.30;;;;;;5060425;28;20052;-79
2020/12/01 11:42:18;;;;;;;23.13;13.40;;;9.40;54.00;;;;;;5041050;28;20033;-78
2020/12/01 11:44:44;;;;;;;20.38;12.90;;;10.00;53.70;;;;;;5061714;28;20045;-81
2020/12/01 11:47:11;;;;;;;20.05;12.95;;;10.70;52.40;;;;;;5043596;28;20435;-79
2020/12/01 11:49:37;;;;;;;22.35;13.63;;;11.40;56.60;;;;;;5070518;28;20078;-81
2020/12/01 11:52:03;;;;;;;22.65;13.65;;;12.40;50.20;;;;;;5052284;28;20029;-80
2020/12/01 11:54:29;;;;;;;23.33;14.73;;;12.00;50.20;;;;;;5070499;28;20052;-83
2020/12/01 11:56:54;;;;;;;22.52;13.73;;;11.20;51.00;;;;;;5045775;28;20063;-81
2020/12/01 11:59:21;;;;;;;22.65;13.65;;;11.00;50.30;;;;;;5053005;28;20752;-82
2020/12/01 12:01:46;;;;;;;21.27;13.48;;;10.60;51.60;;;;;;5052820;28;20070;-82
2020/12/01 12:04:13;;;;;;;21.88;14.13;;;10.60;51.40;;;;;;5062836;28;20044;-83
2020/12/01 12:06:39;;;;;;;21.90;13.77;;;11.40;50.60;;;;;;5059668;28;20029;-84
2020/12/01 12:09:07;;;;;;;23.35;14.65;;;10.90;50.50;;;;;;5058159;28;20380;-80
2020/12/01 12:11:32;;;;;;;21.55;13.68;;;11.40;50.10;;;;;;5038140;28;20028;-81
2020/12/01 12:13:59;;;;;;;22.25;14.27;;;11.80;49.60;;;;;;5059028;28;20039;-80
2020/12/01 12:16:25;;;;;;;21.73;13.88;;;11.90;49.00;;;;;;5060498;28;20419;-80
2020/12/01 12:18:51;;;;;;;23.25;13.45;;;12.10;49.40;;;;;;5037775;28;20013;-79
2020/12/01 12:21:18;;;;;;;23.15;13.88;;;11.30;48.90;;;;;;5059205;28;20063;-81
2020/12/01 12:23:44;;;;;;;20.08;13.20;;;9.40;52.20;;;;;;5060458;28;20507;-82
2020/12/01 12:26:11;;;;;;;21.13;13.27;;;9.30;54.70;;;;;;5057969;28;20492;-81
2020/12/01 12:28:36;;;;;;;22.38;12.75;;;10.00;53.20;;;;;;5046161;28;20024;-82
2020/12/01 12:31:02;;;;;;;23.58;13.57;;;10.80;51.40;;;;;;5042898;28;20073;-81
2020/12/01 12:33:30;;;;;;;22.92;13.23;;;11.60;50.30;;;;;;5063320;28;20099;-81
2020/12/01 12:35:57;;;;;;;22.35;13.10;;;11.10;49.50;;;;;;5064332;28;20036;-80
2020/12/01 12:38:23;;;;;;;16.45;11.63;;;10.60;50.60;;;;;;5059873;28;20021;-81
2020/12/01 12:40:51;;;;;;;19.90;11.85;;;10.30;51.10;;;;;;5053782;28;20032;-81
2020/12/01 12:43:21;;;;;;;19.20;11.77;;;10.20;51.70;;;;;;5059706;28;20017;-82
2020/12/01 12:45:47;;;;;;;20.67;13.10;;;10.00;52.20;;;;;;5044550;28;20027;-81
2020/12/01 12:48:14;;;;;;;23.00;13.38;;;10.20;51.90;;;;;;5057395;28;20025;-83
2020/12/01 12:50:40;;;;;;;21.48;13.00;;;10.40;51.90;;;;;;5054158;28;20606;-83
2020/12/01 12:53:14;;;;;;;20.77;12.80;;;10.60;51.30;;;;;;5036262;28;20479;-83
2020/12/01 12:55:40;;;;;;;23.15;14.02;;;12.50;49.20;;;;;;5051403;28;20025;-81
2020/12/01 12:58:06;;;;;;;20.92;13.68;;;14.50;43.40;;;;;;5073509;28;20430;-85
2020/12/01 13:00:32;;;;;;;19.63;12.82;;;14.00;42.20;;;;;;5055848;28;20460;-81
2020/12/01 13:02:59;;;;;;;19.25;11.13;;;13.00;43.90;;;;;;5045939;28;20119;-80
2020/12/01 13:05:24;;;;;;;19.17;12.88;;;12.90;45.60;;;;;;5053233;28;20107;-79
2020/12/01 13:07:50;;;;;;;19.67;13.32;;;14.40;44.80;;;;;;5035929;28;20025;-80
2020/12/01 13:10:17;;;;;;;20.65;12.40;;;17.10;41.00;;;;;;5053667;28;20445;-80
2020/12/01 13:12:44;;;;;;;18.27;13.02;;;17.80;38.30;;;;;;5035020;28;20373;-80
2020/12/01 13:15:11;;;;;;;20.17;14.18;;;18.10;37.70;;;;;;5034677;28;20507;-80
2020/12/01 13:17:40;;;;;;;21.02;13.35;;;18.70;36.90;;;;;;5053924;28;20029;-81
2020/12/01 13:20:07;;;;;;;21.90;13.63;;;18.90;35.80;;;;;;5036229;28;20480;-81
2020/12/01 13:22:33;;;;;;;19.23;11.30;;;18.20;35.50;;;;;;5053919;28;20029;-80
2020/12/01 13:24:59;;;;;;;19.17;13.05;;;17.40;36.60;;;;;;5053370;28;20046;-82
2020/12/01 13:27:25;;;;;;;17.20;11.85;;;17.60;36.60;;;;;;5035868;28;20033;-81
2020/12/01 13:29:50;;;;;;;20.10;13.52;;;18.50;36.00;;;;;;5035413;28;20017;-80
2020/12/01 13:32:16;;;;;;;18.10;13.00;;;18.80;35.20;;;;;;5035751;28;20089;-81
2020/12/01 13:34:42;;;;;;;21.95;13.52;;;19.40;34.50;;;;;;5053206;28;20451;-85
2020/12/01 13:37:08;;;;;;;19.75;13.55;;;19.50;34.60;;;;;;5053273;28;20025;-82
2020/12/01 13:39:33;;;;;;;21.60;13.43;;;20.50;33.90;;;;;;5052988;28;20425;-83
2020/12/01 13:41:59;;;;;;;19.48;13.43;;;20.60;34.90;;;;;;5035600;28;20058;-83